sensor_id;sensor_type;location;lat;lon;timestamp;pressure;altitude;pressure_sealevel;temperature;humidity
17254;BME280;32542;52.832;13.816;2023-07-16T00:00:14;100632.38;;;25.32;50.61
17254;BME280;32542;52.832;13.816;2023-07-16T00:03:23;100619.81;;;25.32;50.49
17254;BME280;32542;52.832;13.816;2023-07-16T00:06:26;100617.13;;;25.32;50.31
17254;BME280;32542;52.832;13.816;2023-07-16T00:09:29;100615.44;;;25.31;50.27
17254;BME280;32542;52.832;13.816;2023-07-16T00:12:33;100618.97;;;25.32;50.36
17254;BME280;32542;52.832;13.816;2023-07-16T00:15:36;100630.53;;;25.32;50.49
17254;BME280;32542;52.832;13.816;2023-07-16T00:18:41;100648.34;;;25.33;50.58
17254;BME280;32542;52.832;13.816;2023-07-16T00:21:44;100643.00;;;25.33;50.88
17254;BME280;32542;52.832;13.816;2023-07-16T00:24:47;100652.84;;;25.33;50.95
17254;BME280;32542;52.832;13.816;2023-07-16T00:27:51;100651.03;;;25.33;50.87
17254;BME280;32542;52.832;13.816;2023-07-16T00:30:55;100657.34;;;25.32;51.02
17254;BME280;32542;52.832;13.816;2023-07-16T00:33:58;100657.34;;;25.32;51.11
17254;BME280;32542;52.832;13.816;2023-07-16T00:37:01;100649.31;;;25.32;51.26
17254;BME280;32542;52.832;13.816;2023-07-16T00:40:06;100638.56;;;25.32;50.98
17254;BME280;32542;52.832;13.816;2023-07-16T00:43:11;100634.09;;;25.33;50.89
17254;BME280;32542;52.832;13.816;2023-07-16T00:46:15;100637.63;;;25.33;50.79
17254;BME280;32542;52.832;13.816;2023-07-16T00:49:19;100639.44;;;25.33;51.04
17254;BME280;32542;52.832;13.816;2023-07-16T00:52:22;100645.66;;;25.33;51.02
17254;BME280;32542;52.832;13.816;2023-07-16T00:55:26;100643.00;;;25.33;50.88
17254;BME280;32542;52.832;13.816;2023-07-16T00:58:30;100660.03;;;25.32;51.13
17254;BME280;32542;52.832;13.816;2023-07-16T01:01:33;100658.22;;;25.33;50.95
17254;BME280;32542;52.832;13.816;2023-07-16T01:04:36;100681.47;;;25.32;50.90
17254;BME280;32542;52.832;13.816;2023-07-16T01:07:42;100684.16;;;25.32;50.98
17254;BME280;32542;52.832;13.816;2023-07-16T01:10:52;100690.50;;;25.31;51.02
17254;BME280;32542;52.832;13.816;2023-07-16T01:13:57;100710.97;;;25.32;50.91
17254;BME280;32542;52.832;13.816;2023-07-16T01:17:03;100717.31;;;25.31;50.73
17254;BME280;32542;52.832;13.816;2023-07-16T01:20:07;100742.28;;;25.32;50.72
17254;BME280;32542;52.832;13.816;2023-07-16T01:23:32;100751.16;;;25.32;50.90
17254;BME280;32542;52.832;13.816;2023-07-16T01:26:53;100777.97;;;25.32;51.05
17254;BME280;32542;52.832;13.816;2023-07-16T01:30:04;100792.34;;;25.31;51.05
17254;BME280;32542;52.832;13.816;2023-07-16T01:33:08;100804.78;;;25.32;51.06
17254;BME280;32542;52.832;13.816;2023-07-16T01:36:12;100826.22;;;25.32;51.00
17254;BME280;32542;52.832;13.816;2023-07-16T01:39:16;100857.66;;;25.30;50.92
17254;BME280;32542;52.832;13.816;2023-07-16T01:42:19;100889.81;;;25.30;51.05
17254;BME280;32542;52.832;13.816;2023-07-16T01:45:24;100903.22;;;25.30;51.05
17254;BME280;32542;52.832;13.816;2023-07-16T01:48:30;100913.94;;;25.30;51.07
17254;BME280;32542;52.832;13.816;2023-07-16T01:51:33;100913.94;;;25.30;51.03
17254;BME280;32542;52.832;13.816;2023-07-16T01:54:37;100910.31;;;25.31;51.06
17254;BME280;32542;52.832;13.816;2023-07-16T01:57:40;100942.50;;;25.31;50.89
17254;BME280;32542;52.832;13.816;2023-07-16T02:00:44;100925.53;;;25.31;50.89
17254;BME280;32542;52.832;13.816;2023-07-16T02:03:47;100932.72;;;25.30;50.95
17254;BME280;32542;52.832;13.816;2023-07-16T02:06:50;100930.03;;;25.30;51.27
17254;BME280;32542;52.832;13.816;2023-07-16T02:09:56;100935.38;;;25.30;51.33
17254;BME280;32542;52.832;13.816;2023-07-16T02:12:59;100927.34;;;25.30;51.39
17254;BME280;32542;52.832;13.816;2023-07-16T02:16:03;100922.00;;;25.30;51.59
17254;BME280;32542;52.832;13.816;2023-07-16T02:19:06;100912.25;;;25.29;51.59
17254;BME280;32542;52.832;13.816;2023-07-16T02:22:09;100914.06;;;25.29;51.57
17254;BME280;32542;52.832;13.816;2023-07-16T02:25:12;100940.00;;;25.28;51.68
17254;BME280;32542;52.832;13.816;2023-07-16T02:28:15;100956.00;;;25.30;51.47
17254;BME280;32542;52.832;13.816;2023-07-16T02:31:20;100933.69;;;25.29;51.40
17254;BME280;32542;52.832;13.816;2023-07-16T02:34:23;100929.19;;;25.30;51.37
17254;BME280;32542;52.832;13.816;2023-07-16T02:37:26;100931.88;;;25.30;51.58
17254;BME280;32542;52.832;13.816;2023-07-16T02:40:28;100946.13;;;25.30;51.81
17254;BME280;32542;52.832;13.816;2023-07-16T02:43:31;100955.13;;;25.29;51.87
17254;BME280;32542;52.832;13.816;2023-07-16T02:46:36;100947.09;;;25.29;51.71
17254;BME280;32542;52.832;13.816;2023-07-16T02:49:38;100942.59;;;25.30;51.94
17254;BME280;32542;52.832;13.816;2023-07-16T02:52:41;100939.03;;;25.29;51.92
17254;BME280;32542;52.832;13.816;2023-07-16T02:55:45;100955.13;;;25.29;52.05
17254;BME280;32542;52.832;13.816;2023-07-16T02:58:48;100951.69;;;25.27;51.98
17254;BME280;32542;52.832;13.816;2023-07-16T03:01:52;100944.41;;;25.29;51.90
17254;BME280;32542;52.832;13.816;2023-07-16T03:04:55;100944.41;;;25.29;51.88
17254;BME280;32542;52.832;13.816;2023-07-16T03:07:58;100952.44;;;25.29;51.81
17254;BME280;32542;52.832;13.816;2023-07-16T03:11:01;100937.25;;;25.30;51.84
17254;BME280;32542;52.832;13.816;2023-07-16T03:14:05;100941.72;;;25.29;52.05
17254;BME280;32542;52.832;13.816;2023-07-16T03:17:10;100949.78;;;25.29;51.95
17254;BME280;32542;52.832;13.816;2023-07-16T03:20:13;100956.84;;;25.30;52.20
17254;BME280;32542;52.832;13.816;2023-07-16T03:23:16;100944.41;;;25.29;52.08
17254;BME280;32542;52.832;13.816;2023-07-16T03:26:19;100947.97;;;25.30;52.15
17254;BME280;32542;52.832;13.816;2023-07-16T03:29:23;100958.75;;;25.28;52.08
17254;BME280;32542;52.832;13.816;2023-07-16T03:32:28;100945.34;;;25.28;52.19
17254;BME280;32542;52.832;13.816;2023-07-16T03:35:51;100934.63;;;25.28;52.21
17254;BME280;32542;52.832;13.816;2023-07-16T03:38:54;100926.59;;;25.28;51.97
17254;BME280;32542;52.832;13.816;2023-07-16T03:41:57;100906.97;;;25.28;52.05
17254;BME280;32542;52.832;13.816;2023-07-16T03:45:00;100898.84;;;25.29;52.02
17254;BME280;32542;52.832;13.816;2023-07-16T03:48:05;100895.28;;;25.29;52.14
17254;BME280;32542;52.832;13.816;2023-07-16T03:51:08;100889.06;;;25.28;52.39
17254;BME280;32542;52.832;13.816;2023-07-16T03:54:11;100893.47;;;25.29;52.38
17254;BME280;32542;52.832;13.816;2023-07-16T03:57:14;100883.69;;;25.28;52.35
17254;BME280;32542;52.832;13.816;2023-07-16T04:00:17;100862.25;;;25.28;52.46
17254;BME280;32542;52.832;13.816;2023-07-16T04:03:25;100888.22;;;25.28;52.36
17254;BME280;32542;52.832;13.816;2023-07-16T04:06:28;100876.63;;;25.27;52.49
17254;BME280;32542;52.832;13.816;2023-07-16T04:09:31;100879.31;;;25.27;52.42
17254;BME280;32542;52.832;13.816;2023-07-16T04:12:34;100878.34;;;25.28;52.39
17254;BME280;32542;52.832;13.816;2023-07-16T04:15:37;100898.94;;;25.28;52.39
17254;BME280;32542;52.832;13.816;2023-07-16T04:18:41;100914.16;;;25.27;52.18
17254;BME280;32542;52.832;13.816;2023-07-16T04:21:44;100913.19;;;25.28;52.24
17254;BME280;32542;52.832;13.816;2023-07-16T04:24:47;100931.00;;;25.29;52.34
17254;BME280;32542;52.832;13.816;2023-07-16T04:27:50;100943.53;;;25.29;52.75
17254;BME280;32542;52.832;13.816;2023-07-16T04:30:53;100960.59;;;25.28;52.67
17254;BME280;32542;52.832;13.816;2023-07-16T04:33:57;100958.75;;;25.28;52.82
17254;BME280;32542;52.832;13.816;2023-07-16T04:37:00;100958.75;;;25.28;52.75
17254;BME280;32542;52.832;13.816;2023-07-16T04:40:04;100962.41;;;25.27;52.70
17254;BME280;32542;52.832;13.816;2023-07-16T04:43:07;100967.78;;;25.27;52.63
17254;BME280;32542;52.832;13.816;2023-07-16T04:46:10;100960.59;;;25.28;52.51
17254;BME280;32542;52.832;13.816;2023-07-16T04:49:15;100956.19;;;25.27;52.54
17254;BME280;32542;52.832;13.816;2023-07-16T04:52:18;100959.72;;;25.27;52.48
17254;BME280;32542;52.832;13.816;2023-07-16T04:55:21;100975.81;;;25.27;52.51
17254;BME280;32542;52.832;13.816;2023-07-16T04:58:24;100977.53;;;25.28;52.71
17254;BME280;32542;52.832;13.816;2023-07-16T05:01:27;100988.25;;;25.28;52.68
17254;BME280;32542;52.832;13.816;2023-07-16T05:04:32;100987.41;;;25.28;53.05
17254;BME280;32542;52.832;13.816;2023-07-16T05:07:35;100997.16;;;25.29;52.78
17254;BME280;32542;52.832;13.816;2023-07-16T05:10:38;100999.94;;;25.27;52.75
17254;BME280;32542;52.832;13.816;2023-07-16T05:13:40;101014.22;;;25.28;52.85
17254;BME280;32542;52.832;13.816;2023-07-16T05:16:43;101022.25;;;25.28;52.86
17254;BME280;32542;52.832;13.816;2023-07-16T05:19:48;101025.88;;;25.27;52.90
17254;BME280;32542;52.832;13.816;2023-07-16T05:22:51;101024.06;;;25.27;52.87
17254;BME280;32542;52.832;13.816;2023-07-16T05:25:53;101025.88;;;25.27;53.01
17254;BME280;32542;52.832;13.816;2023-07-16T05:28:56;101045.41;;;25.29;52.83
17254;BME280;32542;52.832;13.816;2023-07-16T05:31:59;101066.88;;;25.29;52.97
17254;BME280;32542;52.832;13.816;2023-07-16T05:35:05;101045.41;;;25.29;52.84
17254;BME280;32542;52.832;13.816;2023-07-16T05:38:08;101051.66;;;25.29;52.92
17254;BME280;32542;52.832;13.816;2023-07-16T05:41:11;101069.53;;;25.29;52.82
17254;BME280;32542;52.832;13.816;2023-07-16T05:44:13;101048.09;;;25.29;53.22
17254;BME280;32542;52.832;13.816;2023-07-16T05:47:16;101048.19;;;25.27;53.10
17254;BME280;32542;52.832;13.816;2023-07-16T05:50:21;101068.69;;;25.28;53.17
17254;BME280;32542;52.832;13.816;2023-07-16T05:53:24;101056.13;;;25.29;53.27
17254;BME280;32542;52.832;13.816;2023-07-16T05:56:27;101052.59;;;25.28;53.15
17254;BME280;32542;52.832;13.816;2023-07-16T05:59:29;101048.09;;;25.29;53.19
17254;BME280;32542;52.832;13.816;2023-07-16T06:02:35;101044.53;;;25.28;53.00
17254;BME280;32542;52.832;13.816;2023-07-16T06:05:40;101063.25;;;25.30;53.23
17254;BME280;32542;52.832;13.816;2023-07-16T06:08:43;101058.72;;;25.30;53.10
17254;BME280;32542;52.832;13.816;2023-07-16T06:11:46;101062.25;;;25.31;53.31
17254;BME280;32542;52.832;13.816;2023-07-16T06:14:49;101065.81;;;25.31;53.31
17254;BME280;32542;52.832;13.816;2023-07-16T06:17:52;101054.31;;;25.29;53.39
17254;BME280;32542;52.832;13.816;2023-07-16T06:20:56;101064.06;;;25.30;53.35
17254;BME280;32542;52.832;13.816;2023-07-16T06:24:00;101064.06;;;25.30;53.34
17254;BME280;32542;52.832;13.816;2023-07-16T06:27:03;101063.25;;;25.30;53.30
17254;BME280;32542;52.832;13.816;2023-07-16T06:30:07;101068.59;;;25.30;53.37
17254;BME280;32542;52.832;13.816;2023-07-16T06:33:10;101067.63;;;25.31;53.38
17254;BME280;32542;52.832;13.816;2023-07-16T06:36:14;101064.06;;;25.30;53.37
17254;BME280;32542;52.832;13.816;2023-07-16T06:39:18;101055.09;;;25.31;53.36
17254;BME280;32542;52.832;13.816;2023-07-16T06:42:21;101058.66;;;25.32;53.37
17254;BME280;32542;52.832;13.816;2023-07-16T06:45:24;101060.34;;;25.33;53.14
17254;BME280;32542;52.832;13.816;2023-07-16T06:48:26;101060.44;;;25.31;53.34
17254;BME280;32542;52.832;13.816;2023-07-16T06:51:31;101059.47;;;25.32;53.25
17254;BME280;32542;52.832;13.816;2023-07-16T06:54:34;101070.22;;;25.32;53.32
17254;BME280;32542;52.832;13.816;2023-07-16T06:57:38;101072.88;;;25.32;53.33
17254;BME280;32542;52.832;13.816;2023-07-16T07:00:41;101074.72;;;25.32;53.31
17254;BME280;32542;52.832;13.816;2023-07-16T07:03:44;101075.56;;;25.32;53.22
17254;BME280;32542;52.832;13.816;2023-07-16T07:06:48;101078.25;;;25.32;53.31
17254;BME280;32542;52.832;13.816;2023-07-16T07:09:51;101074.63;;;25.33;53.38
17254;BME280;32542;52.832;13.816;2023-07-16T07:12:54;101074.63;;;25.33;53.29
17254;BME280;32542;52.832;13.816;2023-07-16T07:15:57;101085.34;;;25.33;53.25
17254;BME280;32542;52.832;13.816;2023-07-16T07:19:00;101084.38;;;25.34;53.42
17254;BME280;32542;52.832;13.816;2023-07-16T07:22:05;101099.53;;;25.35;53.48
17254;BME280;32542;52.832;13.816;2023-07-16T07:25:08;101097.78;;;25.34;53.58
17254;BME280;32542;52.832;13.816;2023-07-16T07:28:11;101100.47;;;25.34;53.76
17254;BME280;32542;52.832;13.816;2023-07-16T07:31:14;101099.53;;;25.35;53.75
17254;BME280;32542;52.832;13.816;2023-07-16T07:34:17;101089.66;;;25.36;53.87
17254;BME280;32542;52.832;13.816;2023-07-16T07:37:21;101103.91;;;25.36;53.64
17254;BME280;32542;52.832;13.816;2023-07-16T07:40:25;101100.41;;;25.36;53.67
17254;BME280;32542;52.832;13.816;2023-07-16T07:43:28;101113.69;;;25.37;53.72
17254;BME280;32542;52.832;13.816;2023-07-16T07:46:31;101103.91;;;25.36;53.76
17254;BME280;32542;52.832;13.816;2023-07-16T07:49:34;101110.13;;;25.37;53.79
17254;BME280;32542;52.832;13.816;2023-07-16T07:52:38;101119.94;;;25.38;53.65
17254;BME280;32542;52.832;13.816;2023-07-16T07:55:41;101120.78;;;25.38;53.87
17254;BME280;32542;52.832;13.816;2023-07-16T07:58:44;101119.94;;;25.38;53.83
17254;BME280;32542;52.832;13.816;2023-07-16T08:01:47;101131.53;;;25.38;53.83
17254;BME280;32542;52.832;13.816;2023-07-16T08:04:50;101128.84;;;25.38;53.94
17254;BME280;32542;52.832;13.816;2023-07-16T08:07:54;101122.50;;;25.39;54.07
17254;BME280;32542;52.832;13.816;2023-07-16T08:10:58;101126.16;;;25.38;53.87
17254;BME280;32542;52.832;13.816;2023-07-16T08:14:00;101127.00;;;25.39;53.84
17254;BME280;32542;52.832;13.816;2023-07-16T08:17:04;101124.31;;;25.39;53.79
17254;BME280;32542;52.832;13.816;2023-07-16T08:20:08;101125.19;;;25.39;53.81
17254;BME280;32542;52.832;13.816;2023-07-16T08:23:13;101140.34;;;25.40;53.87
17254;BME280;32542;52.832;13.816;2023-07-16T08:26:16;101143.00;;;25.40;53.75
17254;BME280;32542;52.832;13.816;2023-07-16T08:29:19;101144.75;;;25.41;53.86
17254;BME280;32542;52.832;13.816;2023-07-16T08:32:22;101141.16;;;25.41;53.71
17254;BME280;32542;52.832;13.816;2023-07-16T08:35:25;101146.53;;;25.41;53.80
17254;BME280;32542;52.832;13.816;2023-07-16T08:38:30;101145.69;;;25.40;53.89
17254;BME280;32542;52.832;13.816;2023-07-16T08:41:33;101145.69;;;25.40;53.82
17254;BME280;32542;52.832;13.816;2023-07-16T08:44:36;101151.06;;;25.40;53.74
17254;BME280;32542;52.832;13.816;2023-07-16T08:47:39;101147.44;;;25.41;53.83
17254;BME280;32542;52.832;13.816;2023-07-16T08:50:43;101148.38;;;25.40;53.81
17254;BME280;32542;52.832;13.816;2023-07-16T08:53:50;101145.69;;;25.40;53.74
17254;BME280;32542;52.832;13.816;2023-07-16T08:56:53;101140.34;;;25.40;53.71
17254;BME280;32542;52.832;13.816;2023-07-16T08:59:57;101144.75;;;25.41;53.68
17254;BME280;32542;52.832;13.816;2023-07-16T09:03:01;101147.44;;;25.41;53.58
17254;BME280;32542;52.832;13.816;2023-07-16T09:06:04;101142.94;;;25.42;53.57
17254;BME280;32542;52.832;13.816;2023-07-16T09:09:19;101147.44;;;25.41;53.40
17254;BME280;32542;52.832;13.816;2023-07-16T09:12:23;101153.66;;;25.42;53.47
17254;BME280;32542;52.832;13.816;2023-07-16T09:15:28;101153.66;;;25.42;53.42
17254;BME280;32542;52.832;13.816;2023-07-16T09:18:31;101155.47;;;25.41;53.41
17254;BME280;32542;52.832;13.816;2023-07-16T09:21:34;101158.16;;;25.41;53.30
17254;BME280;32542;52.832;13.816;2023-07-16T09:24:38;101165.31;;;25.41;53.23
17254;BME280;32542;52.832;13.816;2023-07-16T09:27:41;101156.41;;;25.40;53.25
17254;BME280;32542;52.832;13.816;2023-07-16T09:30:44;101159.09;;;25.40;53.04
17254;BME280;32542;52.832;13.816;2023-07-16T09:33:47;101164.41;;;25.42;53.03
17254;BME280;32542;52.832;13.816;2023-07-16T09:36:50;101168.88;;;25.41;52.97
17254;BME280;32542;52.832;13.816;2023-07-16T09:39:54;101176.00;;;25.42;52.92
17254;BME280;32542;52.832;13.816;2023-07-16T09:42:58;101167.94;;;25.42;52.81
17254;BME280;32542;52.832;13.816;2023-07-16T09:46:01;101159.91;;;25.42;52.90
17254;BME280;32542;52.832;13.816;2023-07-16T09:49:05;101167.09;;;25.42;52.79
17254;BME280;32542;52.832;13.816;2023-07-16T09:52:08;101171.47;;;25.43;52.93
17254;BME280;32542;52.832;13.816;2023-07-16T09:55:13;101170.63;;;25.42;52.83
17254;BME280;32542;52.832;13.816;2023-07-16T09:58:19;101175.13;;;25.42;52.70
17254;BME280;32542;52.832;13.816;2023-07-16T10:01:24;101173.31;;;25.42;52.47
17254;BME280;32542;52.832;13.816;2023-07-16T10:04:37;101174.25;;;25.41;52.54
17254;BME280;32542;52.832;13.816;2023-07-16T10:07:41;101175.13;;;25.42;52.53
17254;BME280;32542;52.832;13.816;2023-07-16T10:10:47;101179.63;;;25.41;52.63
17254;BME280;32542;52.832;13.816;2023-07-16T10:13:50;101178.69;;;25.42;52.39
17254;BME280;32542;52.832;13.816;2023-07-16T10:17:01;101175.03;;;25.43;52.42
17254;BME280;32542;52.832;13.816;2023-07-16T10:20:07;101176.00;;;25.42;52.34
17254;BME280;32542;52.832;13.816;2023-07-16T10:23:12;101170.63;;;25.42;52.35
17254;BME280;32542;52.832;13.816;2023-07-16T10:26:17;101176.00;;;25.42;52.12
17254;BME280;32542;52.832;13.816;2023-07-16T10:29:21;101185.84;;;25.42;52.11
17254;BME280;32542;52.832;13.816;2023-07-16T10:32:26;101174.25;;;25.41;52.18
17254;BME280;32542;52.832;13.816;2023-07-16T10:35:30;101175.13;;;25.42;52.08
17254;BME280;32542;52.832;13.816;2023-07-16T10:38:40;101179.63;;;25.41;51.90
17254;BME280;32542;52.832;13.816;2023-07-16T10:41:45;101190.34;;;25.41;51.89
17254;BME280;32542;52.832;13.816;2023-07-16T10:44:51;101185.84;;;25.42;51.95
17254;BME280;32542;52.832;13.816;2023-07-16T10:47:54;101193.03;;;25.41;51.94
17254;BME280;32542;52.832;13.816;2023-07-16T10:50:57;101196.56;;;25.42;51.84
17254;BME280;32542;52.832;13.816;2023-07-16T10:54:00;101188.53;;;25.42;51.70
17254;BME280;32542;52.832;13.816;2023-07-16T10:57:08;101193.78;;;25.43;51.70
17254;BME280;32542;52.832;13.816;2023-07-16T11:00:11;101197.44;;;25.42;51.80
17254;BME280;32542;52.832;13.816;2023-07-16T11:03:15;101201.94;;;25.42;51.67
17254;BME280;32542;52.832;13.816;2023-07-16T11:06:19;101200.97;;;25.43;51.60
17254;BME280;32542;52.832;13.816;2023-07-16T11:09:21;101194.78;;;25.42;51.47
17254;BME280;32542;52.832;13.816;2023-07-16T11:12:26;101197.44;;;25.42;51.45
17254;BME280;32542;52.832;13.816;2023-07-16T11:15:32;101197.47;;;25.41;51.22
17254;BME280;32542;52.832;13.816;2023-07-16T11:18:36;101179.63;;;25.41;51.32
17254;BME280;32542;52.832;13.816;2023-07-16T11:21:39;101184.97;;;25.41;51.21
17254;BME280;32542;52.832;13.816;2023-07-16T11:24:43;101194.81;;;25.41;51.16
17254;BME280;32542;52.832;13.816;2023-07-16T11:27:48;101191.22;;;25.42;51.16
17254;BME280;32542;52.832;13.816;2023-07-16T11:30:51;101198.38;;;25.41;51.02
17254;BME280;32542;52.832;13.816;2023-07-16T11:33:59;101187.66;;;25.41;51.08
17254;BME280;32542;52.832;13.816;2023-07-16T11:37:09;101204.63;;;25.42;50.92
17254;BME280;32542;52.832;13.816;2023-07-16T11:40:15;101192.09;;;25.42;50.80
17254;BME280;32542;52.832;13.816;2023-07-16T11:43:20;101195.72;;;25.41;50.88
17254;BME280;32542;52.832;13.816;2023-07-16T11:46:23;101200.13;;;25.42;50.71
17254;BME280;32542;52.832;13.816;2023-07-16T11:49:26;101204.63;;;25.42;50.57
17254;BME280;32542;52.832;13.816;2023-07-16T11:52:29;101198.38;;;25.41;50.77
17254;BME280;32542;52.832;13.816;2023-07-16T11:55:32;101207.31;;;25.42;50.61
17254;BME280;32542;52.832;13.816;2023-07-16T11:58:36;101206.44;;;25.41;50.55
17254;BME280;32542;52.832;13.816;2023-07-16T12:01:39;101205.50;;;25.42;50.64
17254;BME280;32542;52.832;13.816;2023-07-16T12:04:42;101202.81;;;25.42;50.54
17254;BME280;32542;52.832;13.816;2023-07-16T12:07:45;101199.16;;;25.43;50.31
17254;BME280;32542;52.832;13.816;2023-07-16T12:10:48;101194.78;;;25.42;50.25
17254;BME280;32542;52.832;13.816;2023-07-16T12:13:52;101190.34;;;25.41;50.22
17254;BME280;32542;52.832;13.816;2023-07-16T12:16:55;101200.13;;;25.42;50.01
17254;BME280;32542;52.832;13.816;2023-07-16T12:19:59;101201.06;;;25.41;50.08
17254;BME280;32542;52.832;13.816;2023-07-16T12:23:02;101202.81;;;25.42;50.03
17254;BME280;32542;52.832;13.816;2023-07-16T12:26:05;101206.44;;;25.41;50.20
17254;BME280;32542;52.832;13.816;2023-07-16T12:29:11;101208.16;;;25.42;50.01
17254;BME280;32542;52.832;13.816;2023-07-16T12:32:15;101201.94;;;25.42;50.05
17254;BME280;32542;52.832;13.816;2023-07-16T12:35:18;101200.03;;;25.44;50.00
17254;BME280;32542;52.832;13.816;2023-07-16T12:38:21;101198.28;;;25.43;49.87
17254;BME280;32542;52.832;13.816;2023-07-16T12:41:24;101208.16;;;25.42;49.91
17254;BME280;32542;52.832;13.816;2023-07-16T12:44:29;101200.03;;;25.44;49.87
17254;BME280;32542;52.832;13.816;2023-07-16T12:47:32;101199.16;;;25.43;49.77
17254;BME280;32542;52.832;13.816;2023-07-16T12:50:35;101200.97;;;25.43;49.75
17254;BME280;32542;52.832;13.816;2023-07-16T12:53:38;101206.34;;;25.43;49.69
17254;BME280;32542;52.832;13.816;2023-07-16T12:56:41;101212.56;;;25.43;49.47
17254;BME280;32542;52.832;13.816;2023-07-16T12:59:45;101206.34;;;25.43;49.42
17254;BME280;32542;52.832;13.816;2023-07-16T13:02:48;101203.66;;;25.43;49.55
17254;BME280;32542;52.832;13.816;2023-07-16T13:05:51;101206.34;;;25.43;49.62
17254;BME280;32542;52.832;13.816;2023-07-16T13:08:54;101210.75;;;25.44;49.54
17254;BME280;32542;52.832;13.816;2023-07-16T13:11:57;101212.56;;;25.43;49.49
17254;BME280;32542;52.832;13.816;2023-07-16T13:15:01;101212.47;;;25.45;49.66
17254;BME280;32542;52.832;13.816;2023-07-16T13:18:04;101213.34;;;25.45;49.59
17254;BME280;32542;52.832;13.816;2023-07-16T13:21:07;101212.47;;;25.45;49.44
17254;BME280;32542;52.832;13.816;2023-07-16T13:24:10;101223.19;;;25.45;49.33
17254;BME280;32542;52.832;13.816;2023-07-16T13:27:19;101224.06;;;25.45;49.28
17254;BME280;32542;52.832;13.816;2023-07-16T13:30:24;101215.06;;;25.46;49.22
17254;BME280;32542;52.832;13.816;2023-07-16T13:33:27;101217.81;;;25.45;49.30
17254;BME280;32542;52.832;13.816;2023-07-16T13:36:31;101220.50;;;25.45;49.21
17254;BME280;32542;52.832;13.816;2023-07-16T13:39:34;101207.09;;;25.45;49.22
17254;BME280;32542;52.832;13.816;2023-07-16T13:42:37;101217.75;;;25.46;49.33
17254;BME280;32542;52.832;13.816;2023-07-16T13:45:41;101230.28;;;25.46;49.40
17254;BME280;32542;52.832;13.816;2023-07-16T13:48:44;101221.31;;;25.47;49.35
17254;BME280;32542;52.832;13.816;2023-07-16T13:51:59;101219.47;;;25.47;49.19
17254;BME280;32542;52.832;13.816;2023-07-16T13:55:02;101232.03;;;25.47;49.21
17254;BME280;32542;52.832;13.816;2023-07-16T13:58:06;101234.63;;;25.48;49.08
17254;BME280;32542;52.832;13.816;2023-07-16T14:01:10;101238.25;;;25.47;48.87
17254;BME280;32542;52.832;13.816;2023-07-16T14:04:13;101244.47;;;25.48;48.80
17254;BME280;32542;52.832;13.816;2023-07-16T14:07:16;101238.25;;;25.47;48.74
17254;BME280;32542;52.832;13.816;2023-07-16T14:10:19;101243.59;;;25.47;48.82
17254;BME280;32542;52.832;13.816;2023-07-16T14:13:22;101246.28;;;25.47;48.82
17254;BME280;32542;52.832;13.816;2023-07-16T14:16:26;101243.59;;;25.47;48.81
17254;BME280;32542;52.832;13.816;2023-07-16T14:19:29;101243.59;;;25.47;48.88
17254;BME280;32542;52.832;13.816;2023-07-16T14:22:32;101248.97;;;25.47;48.66
17254;BME280;32542;52.832;13.816;2023-07-16T14:25:35;101250.72;;;25.48;48.58
17254;BME280;32542;52.832;13.816;2023-07-16T14:28:38;101239.09;;;25.48;48.39
17254;BME280;32542;52.832;13.816;2023-07-16T14:31:42;101253.41;;;25.48;48.41
17254;BME280;32542;52.832;13.816;2023-07-16T14:34:45;101253.41;;;25.48;48.13
17254;BME280;32542;52.832;13.816;2023-07-16T14:37:48;101257.88;;;25.48;47.80
17254;BME280;32542;52.832;13.816;2023-07-16T14:40:51;101250.72;;;25.48;47.81
17254;BME280;32542;52.832;13.816;2023-07-16T14:43:54;101258.84;;;25.47;47.86
17254;BME280;32542;52.832;13.816;2023-07-16T14:47:00;101265.00;;;25.49;47.88
17254;BME280;32542;52.832;13.816;2023-07-16T14:50:03;101266.81;;;25.48;47.93
17254;BME280;32542;52.832;13.816;2023-07-16T14:53:07;101251.56;;;25.49;47.95
17254;BME280;32542;52.832;13.816;2023-07-16T14:56:10;101245.34;;;25.48;47.82
17254;BME280;32542;52.832;13.816;2023-07-16T14:59:12;101260.56;;;25.48;47.83
17254;BME280;32542;52.832;13.816;2023-07-16T15:02:17;101250.72;;;25.48;47.85
17254;BME280;32542;52.832;13.816;2023-07-16T15:05:20;101249.84;;;25.48;47.77
17254;BME280;32542;52.832;13.816;2023-07-16T15:08:23;101251.56;;;25.49;47.60
17254;BME280;32542;52.832;13.816;2023-07-16T15:11:27;101247.06;;;25.49;47.49
17254;BME280;32542;52.832;13.816;2023-07-16T15:14:29;101255.97;;;25.50;47.46
17254;BME280;32542;52.832;13.816;2023-07-16T15:17:34;101252.41;;;25.49;47.33
17254;BME280;32542;52.832;13.816;2023-07-16T15:20:37;101248.78;;;25.50;47.26
17254;BME280;32542;52.832;13.816;2023-07-16T15:23:43;101245.34;;;25.48;47.09
17254;BME280;32542;52.832;13.816;2023-07-16T15:26:46;101239.97;;;25.48;46.85
17254;BME280;32542;52.832;13.816;2023-07-16T15:29:49;101236.31;;;25.49;46.85
17254;BME280;32542;52.832;13.816;2023-07-16T15:32:53;101239.97;;;25.48;46.83
17254;BME280;32542;52.832;13.816;2023-07-16T15:35:56;101243.53;;;25.49;46.70
17254;BME280;32542;52.832;13.816;2023-07-16T15:39:00;101235.50;;;25.49;46.49
17254;BME280;32542;52.832;13.816;2023-07-16T15:42:03;101241.69;;;25.49;46.64
17254;BME280;32542;52.832;13.816;2023-07-16T15:45:09;101243.44;;;25.50;46.66
17254;BME280;32542;52.832;13.816;2023-07-16T15:48:15;101254.16;;;25.50;46.76